Breukelen, Netherlands
Current Conditions -  °F | °C
As of 8:55 AM on Friday 28 Nov 2014 (Local Time) from EHAM Reporting Station
Few Clouds Few Clouds  
Wind Chill: 36°   Ceiling: Unl
Heat Index: 43°   Visibility: 3mi
Dew Point: 41°   Wind: 14mph
Humidity: 93%   Direction: 90°E
Pressure: 29.74"   Gusts: NA
Location:  52.17°N, 5°E
Report Text: EHAM 280755Z 09012KT 5000 FEW009 06/05 Q1007 NOSIG
Loading
Personal Weather Stations






























Interactive Weather Map New forecast layout! Learn more

10-Day Weather Forecast

Advertisements
Track Severe Weather on mobile